Arjay, Kentucky
Current Conditions -  °F | °C
As of 1:55 PM on Friday 31 Oct 2014 (Local Time) from K1A6 Reporting Station
Drizzle Drizzle  
Wind Chill:   Ceiling: 2300
Heat Index:   Visibility: 10mi
Dew Point:   Wind: 0mph
Humidity: 91%   Direction: NA
Pressure: 29.93"   Gusts: NA
Location:  36.8°N, 83.65°W
Report Text: K1A6 311755Z AUTO 00000KT 10SM -DZ BKN023 BKN050 OVC065 07/06 A2993 RMK AO2 P0001 60005 T00710058 10071 20030
Loading
Personal Weather Stations






























Interactive Weather Map
Tropical Storm Tracking
New forecast layout! Learn more

10-Day Weather Forecast

Advertisements
Track Severe Weather on mobile